Time;durP1;ratioP1;P1;durP2;ratioP2;P2;SDS_P1;SDS_P2;PMS_P1;PMS_P2;Temp;Humidity;BMP_temperature;BMP_pressure;BME280_temperature;BME280_humidity;BME280_pressure;Samples;Min_cycle;Max_cycle;Signal;HPM_P1;HPM_P2
2023/02/15 00:01:53;;;;;;;35.75;22.83;;;3.80;99.90;;;2.82;100.00;102203.56;4176578;28;20025;-78
2023/02/15 00:03:54;;;;;;;39.95;23.42;;;3.80;99.90;;;2.76;100.00;102186.47;4183897;28;20087;-78
2023/02/15 00:05:57;;;;;;;35.83;24.20;;;3.80;99.90;;;2.89;100.00;102207.59;4179459;28;20044;-78
2023/02/15 00:07:58;;;;;;;39.60;25.98;;;3.80;99.90;;;2.87;100.00;102191.16;4193086;28;20059;-78
2023/02/15 00:09:59;;;;;;;36.75;23.55;;;3.90;99.90;;;2.92;100.00;102183.13;4167342;28;20021;-78
2023/02/15 00:12:00;;;;;;;34.95;22.70;;;3.90;99.90;;;2.85;100.00;102177.38;4167148;28;20479;-78
2023/02/15 00:14:01;;;;;;;30.73;20.60;;;3.90;99.90;;;2.91;100.00;102184.91;4168286;28;20075;-78
2023/02/15 00:16:08;;;;;;;36.28;22.95;;;4.00;99.90;;;2.85;100.00;102177.38;4168539;28;20025;-78
2023/02/15 00:18:09;;;;;;;37.38;23.05;;;3.90;99.90;;;2.88;100.00;102192.84;4177106;28;20036;-77
2023/02/15 00:20:10;;;;;;;38.08;24.40;;;3.90;99.90;;;2.89;100.00;102189.34;4183790;28;20036;-78
2023/02/15 00:22:11;;;;;;;35.70;24.80;;;3.90;99.90;;;2.89;100.00;102184.13;4183666;28;20079;-78
2023/02/15 00:24:15;;;;;;;38.25;23.70;;;3.90;99.90;;;2.96;100.00;102192.47;4166953;28;20040;-78
2023/02/15 00:26:16;;;;;;;39.15;23.88;;;4.00;99.90;;;2.93;100.00;102187.44;4183955;28;20028;-77
2023/02/15 00:28:17;;;;;;;37.80;23.58;;;3.90;99.90;;;2.87;100.00;102179.91;4166824;28;20029;-78
2023/02/15 00:30:18;;;;;;;38.00;25.60;;;3.90;99.90;;;2.91;100.00;102189.25;4168355;28;20079;-78
2023/02/15 00:32:19;;;;;;;36.03;25.40;;;3.90;99.90;;;2.90;100.00;102177.97;4167609;28;20116;-77
2023/02/15 00:34:26;;;;;;;39.30;26.88;;;3.90;99.90;;;2.92;100.00;102177.94;4169802;28;20029;-77
2023/02/15 00:36:27;;;;;;;39.60;24.55;;;3.90;99.90;;;2.95;100.00;102176.03;4172591;28;20037;-77
2023/02/15 00:38:29;;;;;;;39.00;24.33;;;3.90;99.90;;;2.93;100.00;102169.19;4170125;28;20109;-77
2023/02/15 00:40:30;;;;;;;36.33;23.77;;;4.00;99.90;;;2.96;100.00;102180.31;4170123;28;20025;-78
2023/02/15 00:42:31;;;;;;;35.97;25.58;;;4.00;99.90;;;2.95;100.00;102170.81;4187819;28;20029;-78
2023/02/15 00:44:32;;;;;;;35.00;23.00;;;4.00;99.90;;;2.90;100.00;102169.34;4187734;28;20036;-78
2023/02/15 00:46:33;;;;;;;38.08;25.17;;;4.00;99.90;;;2.93;100.00;102170.03;4183559;28;20088;-78
2023/02/15 00:48:34;;;;;;;35.15;24.13;;;4.00;99.90;;;2.90;100.00;102159.75;4170345;28;20083;-78
2023/02/15 00:50:35;;;;;;;35.30;23.75;;;4.00;99.90;;;3.01;100.00;102177.50;4153607;28;20021;-78
2023/02/15 00:52:36;;;;;;;36.60;24.20;;;4.00;99.90;;;3.02;100.00;102176.56;4170099;28;20543;-78
2023/02/15 00:54:38;;;;;;;37.55;25.50;;;4.00;99.90;;;3.02;100.00;102172.19;4171193;28;20053;-77
2023/02/15 00:56:39;;;;;;;37.65;24.50;;;4.00;99.90;;;3.03;100.00;102170.44;4173249;28;20440;-77
2023/02/15 00:58:40;;;;;;;33.13;23.02;;;4.10;99.90;;;3.02;100.00;102156.56;4186161;28;20033;-78
2023/02/15 01:00:44;;;;;;;36.63;25.48;;;4.10;99.90;;;3.07;100.00;102170.22;4169913;28;20124;-78
2023/02/15 01:02:45;;;;;;;30.38;19.70;;;4.10;99.90;;;3.03;100.00;102160.84;4168897;28;20032;-77
2023/02/15 01:04:45;;;;;;;40.00;26.80;;;4.10;99.90;;;2.98;100.00;102147.22;4186594;28;20057;-78
2023/02/15 01:06:46;;;;;;;33.92;23.92;;;4.10;99.90;;;3.09;100.00;102159.72;4161362;28;20092;-78
2023/02/15 01:08:47;;;;;;;33.80;22.98;;;4.10;99.90;;;3.13;100.00;102161.28;4171182;28;20029;-78
2023/02/15 01:10:49;;;;;;;33.20;22.55;;;4.10;99.90;;;3.12;100.00;102167.38;4169468;28;20029;-77
2023/02/15 01:12:52;;;;;;;34.67;22.52;;;4.10;99.90;;;3.07;100.00;102157.19;4170965;28;20029;-78
2023/02/15 01:14:52;;;;;;;36.20;25.80;;;4.10;99.90;;;3.03;100.00;102153.03;4169555;28;20091;-78
2023/02/15 01:16:53;;;;;;;35.80;22.90;;;4.10;99.90;;;3.07;100.00;102158.97;4181742;28;20112;-78
2023/02/15 01:18:55;;;;;;;35.80;23.63;;;4.10;99.90;;;3.02;100.00;102155.69;4171540;28;20026;-78
2023/02/15 01:20:56;;;;;;;37.17;23.83;;;4.00;99.90;;;2.90;100.00;102138.06;4169600;28;20033;-78
2023/02/15 01:22:57;;;;;;;31.80;22.77;;;4.00;99.90;;;2.97;100.00;102155.09;4169957;28;20029;-78
2023/02/15 01:24:58;;;;;;;31.42;22.48;;;4.00;99.90;;;2.94;100.00;102156.09;4170698;28;20379;-77
2023/02/15 01:26:59;;;;;;;39.33;23.63;;;4.00;99.90;;;2.88;100.00;102145.94;4179857;28;20036;-78
2023/02/15 01:29:00;;;;;;;35.40;24.17;;;3.90;99.90;;;2.86;100.00;102144.34;4169695;28;20032;-78
2023/02/15 01:31:21;;;;;;;31.80;21.42;;;3.90;99.90;;;2.73;100.00;102133.63;4169998;28;20563;-78
2023/02/15 01:33:21;;;;;;;34.22;23.45;;;3.90;99.90;;;2.83;100.00;102158.38;4200266;28;20028;-77
2023/02/15 01:35:23;;;;;;;38.25;25.08;;;3.80;99.90;;;2.77;100.00;102149.06;4186227;28;20021;-78
2023/02/15 01:37:24;;;;;;;38.20;24.98;;;3.80;99.90;;;2.76;100.00;102151.72;4172456;28;20500;-78
2023/02/15 01:39:25;;;;;;;35.85;23.77;;;3.80;99.90;;;2.73;100.00;102147.50;4169595;28;20101;-78
2023/02/15 01:41:26;;;;;;;36.53;24.00;;;3.70;99.90;;;2.68;100.00;102133.03;4169335;28;20061;-77
2023/02/15 01:43:54;;;;;;;38.90;25.20;;;3.70;99.90;;;2.66;100.00;102138.28;4170446;28;20481;-78
2023/02/15 01:45:55;;;;;;;36.25;23.73;;;3.70;99.90;;;2.62;100.00;102128.09;4171551;28;20025;-77
2023/02/15 01:48:25;;;;;;;36.60;24.67;;;3.80;99.90;;;2.68;100.00;102143.44;4154748;28;20024;-78
2023/02/15 01:50:58;;;;;;;37.72;22.45;;;3.70;99.90;;;2.64;100.00;102147.09;4185576;28;20033;-78
2023/02/15 01:53:50;;;;;;;37.90;22.65;;;3.70;99.90;;;2.53;100.00;102126.75;4168882;28;20033;-78
2023/02/15 01:56:08;;;;;;;34.80;22.45;;;3.70;99.90;;;2.64;100.00;102141.88;4156273;28;20041;-78
2023/02/15 01:58:09;;;;;;;36.95;23.60;;;3.70;99.90;;;2.64;100.00;102134.06;4173512;28;20393;-78
2023/02/15 02:00:11;;;;;;;36.67;23.58;;;3.70;99.90;;;2.67;100.00;102144.34;4168865;28;20063;-77
2023/02/15 02:02:16;;;;;;;37.33;24.20;;;3.70;99.90;;;2.63;100.00;102129.75;4175356;28;20071;-78
2023/02/15 02:04:30;;;;;;;38.50;25.23;;;3.70;99.90;;;2.67;100.00;102139.13;4169054;28;20032;-77
2023/02/15 02:06:34;;;;;;;38.13;22.83;;;3.70;99.90;;;2.69;100.00;102137.28;4177486;28;20021;-78
2023/02/15 02:08:35;;;;;;;35.78;22.17;;;3.70;99.90;;;2.56;100.00;102112.75;4182168;28;20548;-78
2023/02/15 02:10:36;;;;;;;33.53;21.42;;;3.70;99.90;;;2.68;100.00;102127.81;4171948;28;20072;-78
2023/02/15 02:12:39;;;;;;;32.30;21.60;;;3.70;99.90;;;2.68;100.00;102136.47;4169251;28;20034;-78
2023/02/15 02:14:41;;;;;;;33.72;21.83;;;3.70;99.90;;;2.63;100.00;102125.41;4168917;28;20041;-78
2023/02/15 02:17:16;;;;;;;31.55;21.42;;;3.70;99.90;;;2.68;100.00;102130.41;4160442;28;20165;-78
2023/02/15 02:20:06;;;;;;;29.60;21.25;;;3.70;99.90;;;2.68;100.00;102127.81;4173540;28;20029;-78
2023/02/15 02:22:43;;;;;;;34.05;21.45;;;3.80;99.90;;;2.67;100.00;102126.97;4186244;28;20402;-78
2023/02/15 02:25:06;;;;;;;36.20;22.65;;;3.70;99.90;;;2.70;100.00;102118.16;4186422;28;20041;-77
2023/02/15 02:27:39;;;;;;;38.85;24.95;;;3.80;99.90;;;2.69;100.00;102117.31;4174587;28;20032;-77
2023/02/15 02:30:28;;;;;;;36.90;23.85;;;3.80;99.90;;;2.74;100.00;102117.09;4171219;28;20031;-78
2023/02/15 02:33:04;;;;;;;35.42;22.58;;;3.80;99.90;;;2.75;100.00;102118.78;4169998;28;20118;-78
2023/02/15 02:35:05;;;;;;;33.95;23.42;;;3.80;99.90;;;2.72;100.00;102113.69;4169562;28;20042;-78
2023/02/15 02:37:42;;;;;;;36.58;24.42;;;3.80;99.90;;;2.75;100.00;102118.78;4176542;28;20076;-78
2023/02/15 02:40:30;;;;;;;33.08;22.05;;;3.80;99.90;;;2.69;100.00;102106.88;4185067;28;20083;-77
2023/02/15 02:43:41;;;;;;;35.17;22.08;;;3.70;99.90;;;2.71;100.00;102112.88;4127670;28;20102;-78
2023/02/15 02:46:05;;;;;;;38.85;24.00;;;3.70;99.90;;;2.70;100.00;102112.94;4079296;29;20032;-78
2023/02/15 02:48:13;;;;;;;32.58;21.83;;;3.70;99.90;;;2.62;100.00;102089.88;4127602;28;20044;-78
2023/02/15 02:50:22;;;;;;;36.83;24.15;;;3.70;99.90;;;2.68;100.00;102106.97;4174039;28;20042;-78
2023/02/15 02:52:43;;;;;;;31.08;22.00;;;3.70;99.90;;;2.58;100.00;102093.53;4184969;28;20033;-77
2023/02/15 02:54:44;;;;;;;30.10;20.65;;;3.70;99.90;;;2.62;100.00;102108.09;4185720;28;20029;-78
2023/02/15 02:56:50;;;;;;;36.72;23.42;;;3.70;99.90;;;2.61;100.00;102100.34;4176015;28;20034;-78
2023/02/15 02:59:04;;;;;;;35.17;22.67;;;3.70;99.90;;;2.62;100.00;102104.66;4167770;28;20037;-78
2023/02/15 03:01:22;;;;;;;26.70;16.88;;;3.70;99.90;;;2.52;100.00;102090.34;4170210;28;20541;-77
2023/02/15 03:03:34;;;;;;;35.30;23.70;;;3.60;99.90;;;2.52;100.00;102090.34;4186107;28;20033;-78
2023/02/15 03:05:41;;;;;;;31.25;22.40;;;3.60;99.90;;;2.48;100.00;102091.44;4184582;28;20025;-78
2023/02/15 03:07:45;;;;;;;34.17;22.13;;;3.60;99.90;;;2.47;100.00;102089.75;4168781;28;20060;-78
2023/02/15 03:09:52;;;;;;;30.63;21.10;;;3.50;99.90;;;2.42;100.00;102089.13;4167795;28;20064;-78
2023/02/15 03:11:53;;;;;;;37.78;23.63;;;3.50;99.90;;;2.38;100.00;102084.97;4167969;28;20060;-78
2023/02/15 03:13:54;;;;;;;34.22;21.80;;;3.50;99.90;;;2.38;100.00;102091.00;4167843;28;20116;-78
2023/02/15 03:18:22;;;;;;;30.67;21.17;;;3.40;99.90;;;2.30;100.00;102085.28;4184809;28;20112;-78
2023/02/15 03:20:33;;;;;;;31.30;21.85;;;3.40;99.90;;;2.19;100.00;102072.78;4184700;28;20032;-78
2023/02/15 03:23:14;;;;;;;30.27;19.67;;;3.40;99.90;;;2.18;100.00;102080.69;4184290;28;20116;-78
2023/02/15 03:25:26;;;;;;;33.35;20.75;;;3.30;99.90;;;2.11;100.00;102074.91;4173534;28;20059;-78
2023/02/15 03:27:41;;;;;;;32.92;22.25;;;3.20;99.90;;;2.02;100.00;102067.50;4170583;28;20478;-78
2023/02/15 03:29:44;;;;;;;;;;;3.20;99.90;;;1.98;100.00;102067.69;4168027;28;20025;-78
2023/02/15 03:31:50;;;;;;;31.15;19.77;;;3.10;99.90;;;1.95;100.00;102071.28;4168063;28;19909;-78
2023/02/15 03:34:04;;;;;;;31.20;20.27;;;3.10;99.90;;;1.92;100.00;102079.22;4151464;28;20025;-78
2023/02/15 03:36:20;;;;;;;31.90;20.23;;;3.00;99.90;;;1.82;100.00;102067.56;4153132;28;20429;-78
2023/02/15 03:38:40;;;;;;;35.25;21.85;;;3.00;99.90;;;1.83;100.00;102068.38;4152271;28;20041;-78
2023/02/15 03:43:19;;;;;;;34.25;22.05;;;2.90;99.90;;;1.88;100.00;102085.47;4184151;28;20032;-77
2023/02/15 03:45:29;;;;;;;27.85;17.02;;;2.90;99.90;;;1.85;100.00;102077.78;4183953;28;20079;-78
2023/02/15 03:47:36;;;;;;;34.33;20.30;;;2.90;99.90;;;1.88;100.00;102077.66;4171004;28;20025;-78
2023/02/15 03:49:47;;;;;;;37.22;21.85;;;2.90;99.90;;;1.88;100.00;102082.88;4168588;28;20610;-78
2023/02/15 03:51:53;;;;;;;36.90;23.60;;;2.90;99.90;;;1.78;100.00;102066.00;4168033;28;20029;-78
2023/02/15 03:53:55;;;;;;;35.60;22.83;;;2.90;99.90;;;1.86;100.00;102076.03;4167618;28;20100;-78
2023/02/15 03:55:56;;;;;;;38.05;25.00;;;2.90;99.90;;;1.86;100.00;102081.25;4167757;28;20068;-78
2023/02/15 04:03:05;;;;;;;37.25;23.27;;;2.90;99.90;;;1.87;100.00;102076.00;4178414;28;20032;-78
2023/02/15 04:05:06;;;;;;;35.00;20.77;;;2.90;99.90;;;1.77;100.00;102058.25;4168564;28;20025;-78
2023/02/15 04:07:09;;;;;;;29.35;20.00;;;2.90;99.90;;;1.74;100.00;102072.22;4173845;28;20029;-78
2023/02/15 04:11:29;;;;;;;38.70;23.88;;;2.80;99.90;;;1.66;100.00;102050.91;4185123;28;20048;-77
2023/02/15 04:13:32;;;;;;;37.25;24.27;;;2.80;99.90;;;1.74;100.00;102066.19;4170359;28;20113;-78
2023/02/15 04:17:52;;;;;;;34.92;22.08;;;2.80;99.90;;;1.71;100.00;102054.16;4181154;28;20085;-78
2023/02/15 04:26:58;;;;;;;34.30;22.10;;;2.80;99.90;;;1.77;100.00;102055.63;4176430;28;20059;-78
2023/02/15 04:28:59;;;;;;;38.45;24.30;;;2.90;99.90;;;1.76;100.00;102060.03;4169791;28;20145;-77
2023/02/15 04:30:59;;;;;;;36.00;23.42;;;2.80;99.90;;;1.77;100.00;102053.88;4171119;28;20029;-78
2023/02/15 04:33:00;;;;;;;37.95;26.25;;;2.90;99.90;;;1.81;100.00;102059.81;4197436;28;20067;-78
2023/02/15 04:35:02;;;;;;;33.45;23.38;;;2.80;99.90;;;1.81;100.00;102065.00;4185774;28;20488;-77
2023/02/15 04:37:03;;;;;;;36.55;24.02;;;2.90;99.90;;;1.78;100.00;102052.13;4177960;28;20390;-77
2023/02/15 04:39:05;;;;;;;39.00;25.05;;;2.90;99.90;;;1.78;100.00;102054.75;4170459;28;20031;-78
2023/02/15 04:41:06;;;;;;;36.53;24.23;;;2.90;99.90;;;1.74;100.00;102054.03;4169298;28;20029;-78
2023/02/15 04:43:07;;;;;;;35.25;23.70;;;2.90;99.90;;;1.81;100.00;102060.66;4170253;28;20022;-78
2023/02/15 04:45:08;;;;;;;35.25;22.30;;;2.90;99.90;;;1.80;100.00;102052.91;4170417;28;20026;-78
2023/02/15 04:47:09;;;;;;;35.83;23.45;;;2.90;99.90;;;1.79;100.00;102054.69;4172831;28;20030;-78
2023/02/15 04:49:10;;;;;;;36.03;23.55;;;2.90;99.90;;;1.88;100.00;102062.06;4170457;28;20114;-78
2023/02/15 04:51:11;;;;;;;32.70;22.60;;;2.90;99.90;;;1.77;100.00;102053.88;4185349;28;20043;-78
2023/02/15 04:53:12;;;;;;;32.88;23.08;;;2.90;99.90;;;1.75;100.00;102060.06;4169153;28;20024;-78
2023/02/15 04:55:14;;;;;;;37.28;23.90;;;2.80;99.90;;;1.71;100.00;102059.34;4169008;28;20040;-78
2023/02/15 04:57:15;;;;;;;38.88;24.13;;;2.80;99.90;;;1.67;100.00;102057.81;4179288;28;20029;-78
2023/02/15 04:59:16;;;;;;;36.25;24.10;;;2.70;99.90;;;1.65;100.00;102052.69;4171738;28;20115;-78
2023/02/15 05:01:17;;;;;;;37.60;24.55;;;2.70;99.90;;;1.64;100.00;102055.34;4172866;28;20467;-78
2023/02/15 05:03:18;;;;;;;33.40;23.52;;;2.70;99.90;;;1.55;100.00;102046.16;4168887;28;20022;-78
2023/02/15 05:05:19;;;;;;;33.33;21.77;;;2.70;99.90;;;1.62;100.00;102065.81;4186540;28;20112;-78
2023/02/15 05:07:20;;;;;;;35.58;23.20;;;2.70;99.90;;;1.60;100.00;102059.84;4175529;28;20108;-78
2023/02/15 05:09:21;;;;;;;35.45;22.73;;;2.70;99.90;;;1.61;100.00;102061.50;4168949;28;20413;-78
2023/02/15 05:11:22;;;;;;;34.17;21.25;;;2.70;99.90;;;1.61;100.00;102065.91;4170028;28;20073;-78
2023/02/15 05:13:24;;;;;;;36.00;23.17;;;2.70;99.90;;;1.53;100.00;102052.34;4184971;28;20074;-78
2023/02/15 05:15:25;;;;;;;32.00;22.02;;;2.60;99.90;;;1.55;100.00;102064.38;4169949;28;20076;-78
2023/02/15 05:17:26;;;;;;;32.78;22.30;;;2.60;99.90;;;1.49;100.00;102048.22;4193534;28;20036;-78
2023/02/15 05:19:27;;;;;;;35.60;22.20;;;2.60;99.90;;;1.52;100.00;102053.28;4168449;28;20021;-78
2023/02/15 05:21:28;;;;;;;28.77;19.73;;;2.60;99.90;;;1.47;100.00;102042.22;4170027;28;20041;-78
2023/02/15 05:23:29;;;;;;;31.05;21.00;;;2.60;99.90;;;1.45;100.00;102041.44;4168628;28;20033;-78
2023/02/15 05:30:11;;;;;;;31.38;20.13;;;2.60;99.90;;;1.45;100.00;102051.84;4170533;28;20071;-78
2023/02/15 05:32:14;;;;;;;33.85;20.70;;;2.60;99.90;;;1.46;100.00;102056.16;4176048;28;20464;-78
2023/02/15 05:34:14;;;;;;;28.98;19.42;;;2.60;99.90;;;1.44;100.00;102055.34;4169389;28;20060;-78
2023/02/15 05:36:15;;;;;;;33.03;21.95;;;2.50;99.90;;;1.39;100.00;102059.91;4173616;28;20029;-78
2023/02/15 05:38:16;;;;;;;34.03;20.70;;;2.50;99.90;;;1.40;100.00;102053.81;4183674;28;20036;-78
2023/02/15 05:40:17;;;;;;;33.83;22.38;;;2.50;99.90;;;1.42;100.00;102063.22;4171907;28;20096;-78
2023/02/15 05:42:18;;;;;;;30.55;19.48;;;2.60;99.90;;;1.48;100.00;102077.72;4169350;28;20033;-78
2023/02/15 05:44:19;;;;;;;32.92;21.23;;;2.60;99.90;;;1.52;100.00;102068.88;4169086;28;20044;-78
2023/02/15 05:46:20;;;;;;;28.65;19.83;;;2.60;99.90;;;1.55;100.00;102066.97;4171750;28;20053;-78
2023/02/15 05:48:24;;;;;;;31.55;20.73;;;2.60;99.90;;;1.55;100.00;102066.16;4171849;28;20091;-78
2023/02/15 05:50:26;;;;;;;29.58;18.92;;;2.60;99.90;;;1.44;100.00;102045.81;4169262;28;20424;-78
2023/02/15 05:52:27;;;;;;;27.48;17.75;;;2.60;99.90;;;1.56;100.00;102062.63;4169220;28;20030;-78
2023/02/15 05:54:28;;;;;;;29.85;19.70;;;2.60;99.90;;;1.42;100.00;102051.97;4170218;28;20033;-78
2023/02/15 05:56:29;;;;;;;28.48;17.92;;;2.60;99.90;;;1.45;100.00;102070.06;4173499;28;20203;-78
2023/02/15 05:58:34;;;;;;;31.00;20.73;;;2.60;99.90;;;1.37;100.00;102072.13;4168739;28;20512;-78
2023/02/15 06:00:35;;;;;;;28.95;20.30;;;2.50;99.90;;;1.29;100.00;102071.59;4180591;28;20477;-78
2023/02/15 06:02:37;;;;;;;32.88;20.30;;;2.50;99.90;;;1.26;100.00;102077.78;4183388;28;20072;-78
2023/02/15 06:04:37;;;;;;;31.77;20.40;;;2.40;99.90;;;1.25;100.00;102083.06;4184034;28;20083;-78
2023/02/15 06:06:38;;;;;;;30.00;19.63;;;2.30;99.90;;;1.17;100.00;102072.94;4181497;28;20013;-78
2023/02/15 06:08:39;;;;;;;26.63;17.58;;;2.30;99.90;;;1.19;100.00;102086.75;4171458;28;20021;-78
2023/02/15 06:10:40;;;;;;;30.77;18.70;;;2.30;99.90;;;1.21;100.00;102084.06;4168817;28;20030;-78
2023/02/15 06:12:41;;;;;;;28.38;17.30;;;2.30;99.90;;;1.15;100.00;102073.94;4168945;28;20036;-78
2023/02/15 06:14:42;;;;;;;27.88;17.90;;;2.30;99.90;;;1.17;100.00;102079.91;4168662;28;20037;-78
2023/02/15 06:16:44;;;;;;;24.95;16.65;;;2.20;99.90;;;1.13;100.00;102080.03;4174837;28;20033;-78
2023/02/15 06:18:45;;;;;;;27.48;16.75;;;2.20;99.90;;;1.11;100.00;102092.25;4168558;28;20033;-78
2023/02/15 06:20:47;;;;;;;29.25;18.45;;;2.20;99.90;;;1.08;100.00;102076.78;4185339;28;20029;-78
2023/02/15 06:22:48;;;;;;;30.10;19.42;;;2.10;99.90;;;1.04;100.00;102077.84;4185226;28;20558;-78
2023/02/15 06:24:49;;;;;;;29.70;19.15;;;2.10;99.90;;;0.96;100.00;102069.50;4184946;28;20048;-78
2023/02/15 06:26:50;;;;;;;29.98;19.63;;;2.10;99.90;;;0.96;100.00;102085.06;4173788;28;20098;-78
2023/02/15 06:28:50;;;;;;;32.63;20.27;;;2.10;99.90;;;0.97;100.00;102085.94;4154248;28;20021;-78
2023/02/15 06:30:52;;;;;;;30.38;19.73;;;2.10;99.90;;;0.96;100.00;102094.63;4179505;28;20021;-78
2023/02/15 06:32:53;;;;;;;28.98;19.50;;;2.10;99.90;;;0.91;100.00;102088.78;4174633;28;20540;-78
2023/02/15 06:34:53;;;;;;;31.42;19.15;;;2.00;99.90;;;0.88;100.00;102081.94;4168507;28;20112;-78
2023/02/15 06:36:54;;;;;;;30.23;20.40;;;2.00;99.90;;;0.92;100.00;102099.13;4171389;28;20022;-78
2023/02/15 06:38:56;;;;;;;32.10;21.02;;;2.00;99.90;;;0.90;100.00;102087.06;4169683;28;20179;-78
2023/02/15 06:40:57;;;;;;;31.20;20.08;;;2.00;99.90;;;0.93;100.00;102086.94;4168554;28;20032;-78
2023/02/15 06:42:58;;;;;;;30.55;19.15;;;2.00;99.90;;;0.90;100.00;102085.31;4169241;28;20034;-78
2023/02/15 06:45:00;;;;;;;29.30;18.77;;;2.00;99.90;;;0.82;100.00;102081.34;4168180;28;20034;-78
2023/02/15 06:47:00;;;;;;;28.90;18.67;;;2.00;99.90;;;0.80;100.00;102086.63;4184958;28;20033;-78
2023/02/15 06:49:01;;;;;;;32.75;20.38;;;1.90;99.90;;;0.80;100.00;102088.38;4175345;28;20053;-78
2023/02/15 06:51:02;;;;;;;33.13;21.25;;;1.90;99.90;;;0.73;100.00;102079.97;4169717;28;20052;-78
2023/02/15 06:53:03;;;;;;;33.05;21.77;;;1.90;99.90;;;0.75;100.00;102096.31;4169367;28;20040;-78
2023/02/15 06:55:06;;;;;;;34.53;21.33;;;1.80;99.90;;;0.77;100.00;102102.31;4168195;28;20160;-78
2023/02/15 06:57:06;;;;;;;27.60;19.27;;;1.80;99.90;;;0.79;100.00;102104.84;4172855;28;20025;-78
2023/02/15 06:59:07;;;;;;;31.40;19.95;;;1.80;99.90;;;0.81;100.00;102106.47;4167722;28;20025;-78
2023/02/15 07:01:09;;;;;;;31.85;21.65;;;1.90;99.90;;;0.80;100.00;102110.00;4170767;28;20066;-78
2023/02/15 07:03:14;;;;;;;34.03;20.02;;;1.90;99.90;;;0.80;100.00;102110.00;4184530;28;20116;-78
2023/02/15 07:05:15;;;;;;;31.95;20.98;;;1.80;99.90;;;0.77;100.00;102106.66;4168765;28;20544;-78
2023/02/15 07:07:16;;;;;;;33.33;20.95;;;1.80;99.90;;;0.82;100.00;102115.09;4155780;28;20022;-78
2023/02/15 07:09:17;;;;;;;32.47;19.52;;;1.80;99.90;;;0.78;100.00;102109.19;4169362;28;20104;-78
2023/02/15 07:13:37;;;;;;;33.15;20.38;;;1.80;99.90;;;0.63;100.00;102109.78;4169068;28;20092;-78
2023/02/15 07:15:38;;;;;;;30.90;20.30;;;1.70;99.90;;;0.60;100.00;102109.91;4168145;28;20025;-78
2023/02/15 07:17:40;;;;;;;31.73;20.65;;;1.70;99.90;;;0.63;100.00;102112.38;4179378;28;20017;-78
2023/02/15 07:19:41;;;;;;;27.17;18.33;;;1.70;99.90;;;0.61;100.00;102127.19;4167950;28;20084;-78
2023/02/15 07:21:42;;;;;;;31.15;19.90;;;1.70;99.90;;;0.53;100.00;102126.63;4168961;28;20030;-78
2023/02/15 07:23:43;;;;;;;31.45;19.90;;;1.60;99.90;;;0.53;100.00;102131.81;4168823;28;20044;-78
2023/02/15 07:25:43;;;;;;;34.97;20.90;;;1.60;99.90;;;0.51;100.00;102138.81;4169514;28;20087;-78
2023/02/15 07:27:44;;;;;;;35.80;21.95;;;1.60;99.90;;;0.48;100.00;102126.78;4177197;28;20514;-78
2023/02/15 07:29:45;;;;;;;33.83;21.95;;;1.50;99.90;;;0.52;100.00;102137.91;4167559;28;20053;-78
2023/02/15 07:31:46;;;;;;;31.70;21.08;;;1.60;99.90;;;0.50;100.00;102131.94;4169117;28;20477;-78
2023/02/15 07:33:47;;;;;;;27.88;20.42;;;1.60;99.90;;;0.52;100.00;102128.38;4167769;28;20036;-78
2023/02/15 07:35:57;;;;;;;34.30;21.90;;;1.60;99.90;;;0.52;100.00;102119.75;4169100;28;20049;-78
2023/02/15 07:37:58;;;;;;;32.05;21.98;;;1.60;99.90;;;0.63;100.00;102145.31;4172041;28;20546;-78
2023/02/15 07:39:59;;;;;;;37.53;20.98;;;1.60;99.90;;;0.61;100.00;102145.34;4167607;28;20029;-78
2023/02/15 07:42:01;;;;;;;33.85;20.92;;;1.60;99.90;;;0.63;100.00;102146.13;4168620;28;20036;-78
2023/02/15 07:44:02;;;;;;;33.00;21.13;;;1.70;99.90;;;0.57;100.00;102143.75;4168613;28;20025;-78
2023/02/15 07:46:07;;;;;;;34.60;21.67;;;1.60;99.90;;;0.61;100.00;102152.28;4165949;28;20027;-78
2023/02/15 07:48:08;;;;;;;37.63;22.10;;;1.60;99.90;;;0.60;100.00;102153.22;4168658;28;20088;-78
2023/02/15 07:50:09;;;;;;;31.92;20.33;;;1.60;99.90;;;0.65;100.00;102152.13;4168837;28;20564;-78
2023/02/15 07:52:10;;;;;;;39.90;24.00;;;1.70;99.90;;;0.69;100.00;102156.28;4167585;28;20048;-79
2023/02/15 07:54:11;;;;;;;38.92;23.00;;;1.70;99.90;;;0.67;100.00;102155.50;4167398;28;20026;-79
2023/02/15 07:56:14;;;;;;;34.03;22.17;;;1.70;99.90;;;0.74;100.00;102164.78;4171360;28;20061;-78
2023/02/15 07:58:15;;;;;;;30.98;20.90;;;1.80;99.90;;;0.72;100.00;102158.75;4173843;28;20025;-78
2023/02/15 08:00:24;;;;;;;34.45;20.90;;;1.80;99.90;;;0.76;100.00;102162.94;4185340;28;20472;-79
2023/02/15 08:02:25;;;;;;;30.90;19.60;;;1.80;99.90;;;0.68;100.00;102154.63;4170707;28;20022;-78
2023/02/15 08:04:26;;;;;;;30.92;19.63;;;1.80;99.90;;;0.74;100.00;102166.50;4168436;28;20061;-78
2023/02/15 08:06:31;;;;;;;28.25;19.65;;;1.80;99.90;;;0.77;100.00;102161.19;4167806;28;20101;-78
2023/02/15 08:08:35;;;;;;;35.42;21.42;;;1.80;99.90;;;0.81;100.00;102157.56;4167635;28;20032;-78
2023/02/15 08:12:55;;;;;;;32.75;22.60;;;1.90;99.90;;;0.92;100.00;102168.41;4185073;28;20047;-78
2023/02/15 08:14:56;;;;;;;33.38;22.77;;;1.90;99.90;;;0.97;100.00;102169.91;4185168;28;20029;-78
2023/02/15 08:17:02;;;;;;;33.60;21.98;;;2.00;99.90;;;0.94;100.00;102159.63;4156989;28;20550;-78
2023/02/15 08:19:13;;;;;;;38.67;23.48;;;2.00;99.90;;;1.01;100.00;102161.09;4168380;28;20057;-78
2023/02/15 08:21:14;;;;;;;35.92;24.88;;;2.10;99.90;;;1.07;100.00;102171.25;4168517;28;20033;-78
2023/02/15 08:23:15;;;;;;;34.92;22.15;;;2.10;99.90;;;1.05;100.00;102167.84;4167315;28;20060;-78
2023/02/15 08:25:16;;;;;;;33.28;21.27;;;2.20;99.90;;;1.12;100.00;102178.84;4167142;28;20050;-78
2023/02/15 08:27:17;;;;;;;35.92;23.40;;;2.20;99.90;;;1.11;100.00;102170.22;4176410;28;20033;-79
2023/02/15 08:29:22;;;;;;;45.28;27.33;;;2.20;99.90;;;1.17;100.00;102173.47;4170812;28;20040;-79
2023/02/15 08:31:23;;;;;;;37.30;25.23;;;2.30;99.90;;;1.27;100.00;102180.00;4176961;28;20619;-77
2023/02/15 08:33:24;;;;;;;36.72;23.33;;;2.30;99.90;;;1.24;100.00;102161.91;4171007;28;20036;-76
2023/02/15 08:35:25;;;;;;;36.05;24.83;;;2.40;99.90;;;1.33;100.00;102174.53;4168672;28;20025;-77
2023/02/15 08:37:26;;;;;;;41.15;26.85;;;2.50;99.90;;;1.44;100.00;102173.19;4175000;28;20084;-78
2023/02/15 08:39:27;;;;;;;37.90;26.25;;;2.50;99.90;;;1.59;100.00;102192.53;4168336;28;20049;-76
2023/02/15 08:41:34;;;;;;;44.03;28.42;;;2.60;99.90;;;1.65;100.00;102189.66;4166848;28;20033;-77
2023/02/15 08:43:35;;;;;;;37.83;24.90;;;2.70;99.90;;;1.73;100.00;102192.81;4167002;28;20022;-79
2023/02/15 08:45:36;;;;;;;40.75;25.33;;;2.80;99.90;;;1.75;100.00;102179.72;4167089;28;20049;-82
2023/02/15 08:47:37;;;;;;;41.92;25.80;;;2.90;99.90;;;1.92;100.00;102193.72;4187920;28;20028;-86
2023/02/15 08:49:38;;;;;;;41.83;26.92;;;2.90;99.90;;;1.98;100.00;102183.03;4168066;28;20025;-80
2023/02/15 08:51:39;;;;;;;40.42;25.70;;;3.00;99.90;;;2.15;100.00;102190.97;4168259;28;20389;-77
2023/02/15 08:53:44;;;;;;;45.40;28.60;;;3.10;99.90;;;2.13;100.00;102171.97;4167689;28;20034;-77
2023/02/15 08:55:45;;;;;;;43.38;26.55;;;3.20;99.90;;;2.32;100.00;102182.41;4170346;28;20021;-76
2023/02/15 08:57:46;;;;;;;39.05;25.13;;;3.40;99.90;;;2.40;100.00;102169.03;4168706;28;20087;-76
2023/02/15 08:59:48;;;;;;;41.05;26.17;;;3.40;99.90;;;2.45;100.00;102173.13;4169448;28;20112;-76
2023/02/15 09:01:51;;;;;;;37.45;23.60;;;3.60;99.90;;;2.65;100.00;102193.94;4177726;28;20025;-84
2023/02/15 09:03:58;;;;;;;37.53;23.88;;;3.70;99.90;;;2.67;100.00;102179.06;4186834;28;20019;-84
2023/02/15 09:06:00;;;;;;;39.47;24.75;;;3.80;99.90;;;2.84;100.00;102191.31;4184273;28;20029;-83